sensor_id;sensor_type;location;lat;lon;timestamp;temperature;humidity
17918;DHT22;9084;50.956;3.106;2022-10-16T00:00:42;13.60;99.90
17918;DHT22;9084;50.956;3.106;2022-10-16T00:03:08;13.60;99.90
17918;DHT22;9084;50.956;3.106;2022-10-16T00:05:42;13.50;99.90
17918;DHT22;9084;50.956;3.106;2022-10-16T00:08:11;13.50;99.90
17918;DHT22;9084;50.956;3.106;2022-10-16T00:10:37;13.50;99.90
17918;DHT22;9084;50.956;3.106;2022-10-16T00:13:07;13.40;99.90
17918;DHT22;9084;50.956;3.106;2022-10-16T00:15:34;13.50;99.90
17918;DHT22;9084;50.956;3.106;2022-10-16T00:18:05;13.50;99.90
17918;DHT22;9084;50.956;3.106;2022-10-16T00:20:33;13.50;99.90
17918;DHT22;9084;50.956;3.106;2022-10-16T00:22:59;13.60;99.90
17918;DHT22;9084;50.956;3.106;2022-10-16T00:25:25;13.60;99.90
17918;DHT22;9084;50.956;3.106;2022-10-16T00:27:51;13.70;99.90
17918;DHT22;9084;50.956;3.106;2022-10-16T00:30:17;13.70;99.90
17918;DHT22;9084;50.956;3.106;2022-10-16T00:32:44;13.70;99.90
17918;DHT22;9084;50.956;3.106;2022-10-16T00:35:11;13.70;99.90
17918;DHT22;9084;50.956;3.106;2022-10-16T00:37:39;13.70;99.90
17918;DHT22;9084;50.956;3.106;2022-10-16T00:40:10;13.70;99.90
17918;DHT22;9084;50.956;3.106;2022-10-16T00:42:35;13.70;99.90
17918;DHT22;9084;50.956;3.106;2022-10-16T00:45:04;13.70;99.90
17918;DHT22;9084;50.956;3.106;2022-10-16T00:47:34;13.60;99.90
17918;DHT22;9084;50.956;3.106;2022-10-16T00:50:08;13.60;99.90
17918;DHT22;9084;50.956;3.106;2022-10-16T00:52:36;13.60;99.90
17918;DHT22;9084;50.956;3.106;2022-10-16T00:55:06;13.50;99.90
17918;DHT22;9084;50.956;3.106;2022-10-16T00:57:32;13.50;99.90
17918;DHT22;9084;50.956;3.106;2022-10-16T00:59:58;13.50;99.90
17918;DHT22;9084;50.956;3.106;2022-10-16T01:02:25;13.50;99.90
17918;DHT22;9084;50.956;3.106;2022-10-16T01:04:54;13.50;99.90
17918;DHT22;9084;50.956;3.106;2022-10-16T01:07:34;13.40;99.90
17918;DHT22;9084;50.956;3.106;2022-10-16T01:12:59;13.40;99.90
17918;DHT22;9084;50.956;3.106;2022-10-16T01:18:21;13.40;99.90
17918;DHT22;9084;50.956;3.106;2022-10-16T01:20:54;13.40;99.90
17918;DHT22;9084;50.956;3.106;2022-10-16T01:26:11;13.30;99.90
17918;DHT22;9084;50.956;3.106;2022-10-16T01:28:46;13.30;99.90
17918;DHT22;9084;50.956;3.106;2022-10-16T01:31:17;13.30;99.90
17918;DHT22;9084;50.956;3.106;2022-10-16T01:33:46;13.30;99.90
17918;DHT22;9084;50.956;3.106;2022-10-16T01:36:20;13.30;99.90
17918;DHT22;9084;50.956;3.106;2022-10-16T01:38:51;13.30;99.90
17918;DHT22;9084;50.956;3.106;2022-10-16T01:41:33;13.30;99.90
17918;DHT22;9084;50.956;3.106;2022-10-16T01:47:02;13.30;99.90
17918;DHT22;9084;50.956;3.106;2022-10-16T01:49:33;13.30;99.90
17918;DHT22;9084;50.956;3.106;2022-10-16T01:52:04;13.30;99.90
17918;DHT22;9084;50.956;3.106;2022-10-16T01:54:34;13.30;99.90
17918;DHT22;9084;50.956;3.106;2022-10-16T01:57:04;13.30;99.90
17918;DHT22;9084;50.956;3.106;2022-10-16T01:59:36;13.20;99.90
17918;DHT22;9084;50.956;3.106;2022-10-16T02:02:09;13.20;99.90
17918;DHT22;9084;50.956;3.106;2022-10-16T02:07:41;13.20;99.90
17918;DHT22;9084;50.956;3.106;2022-10-16T02:10:08;13.20;99.90
17918;DHT22;9084;50.956;3.106;2022-10-16T02:12:37;13.10;99.90
17918;DHT22;9084;50.956;3.106;2022-10-16T02:15:05;13.10;99.90
17918;DHT22;9084;50.956;3.106;2022-10-16T02:17:32;13.10;99.90
17918;DHT22;9084;50.956;3.106;2022-10-16T02:19:58;13.10;99.90
17918;DHT22;9084;50.956;3.106;2022-10-16T02:25:14;13.10;99.90
17918;DHT22;9084;50.956;3.106;2022-10-16T02:30:25;13.10;99.90
17918;DHT22;9084;50.956;3.106;2022-10-16T02:32:56;13.10;99.90
17918;DHT22;9084;50.956;3.106;2022-10-16T02:35:27;13.10;99.90
17918;DHT22;9084;50.956;3.106;2022-10-16T02:37:54;13.00;99.90
17918;DHT22;9084;50.956;3.106;2022-10-16T02:40:21;13.00;99.90
17918;DHT22;9084;50.956;3.106;2022-10-16T02:42:51;13.00;99.90
17918;DHT22;9084;50.956;3.106;2022-10-16T02:45:17;13.00;99.90
17918;DHT22;9084;50.956;3.106;2022-10-16T02:47:43;13.00;99.90
17918;DHT22;9084;50.956;3.106;2022-10-16T02:50:12;13.00;99.90
17918;DHT22;9084;50.956;3.106;2022-10-16T02:52:38;13.00;99.90
17918;DHT22;9084;50.956;3.106;2022-10-16T02:55:04;13.00;99.90
17918;DHT22;9084;50.956;3.106;2022-10-16T02:57:32;13.00;99.90
17918;DHT22;9084;50.956;3.106;2022-10-16T02:59:58;13.00;99.90
17918;DHT22;9084;50.956;3.106;2022-10-16T03:02:24;13.00;99.90
17918;DHT22;9084;50.956;3.106;2022-10-16T03:04:50;13.00;99.90
17918;DHT22;9084;50.956;3.106;2022-10-16T03:07:16;12.90;99.90
17918;DHT22;9084;50.956;3.106;2022-10-16T03:09:42;12.90;99.90
17918;DHT22;9084;50.956;3.106;2022-10-16T03:12:08;13.00;99.90
17918;DHT22;9084;50.956;3.106;2022-10-16T03:14:34;12.90;99.90
17918;DHT22;9084;50.956;3.106;2022-10-16T03:17:02;12.90;99.90
17918;DHT22;9084;50.956;3.106;2022-10-16T03:19:30;12.90;99.90
17918;DHT22;9084;50.956;3.106;2022-10-16T03:21:55;12.90;99.90
17918;DHT22;9084;50.956;3.106;2022-10-16T03:24:21;12.90;99.90
17918;DHT22;9084;50.956;3.106;2022-10-16T03:26:47;12.90;99.90
17918;DHT22;9084;50.956;3.106;2022-10-16T03:29:15;12.80;99.90
17918;DHT22;9084;50.956;3.106;2022-10-16T03:31:41;12.80;99.90
17918;DHT22;9084;50.956;3.106;2022-10-16T03:34:09;12.80;99.90
17918;DHT22;9084;50.956;3.106;2022-10-16T03:36:37;12.80;99.90
17918;DHT22;9084;50.956;3.106;2022-10-16T03:39:05;12.80;99.90
17918;DHT22;9084;50.956;3.106;2022-10-16T03:41:31;12.80;99.90
17918;DHT22;9084;50.956;3.106;2022-10-16T03:43:57;12.80;99.90
17918;DHT22;9084;50.956;3.106;2022-10-16T03:46:25;12.80;99.90
17918;DHT22;9084;50.956;3.106;2022-10-16T03:48:50;12.70;99.90
17918;DHT22;9084;50.956;3.106;2022-10-16T03:51:16;12.70;99.90
17918;DHT22;9084;50.956;3.106;2022-10-16T03:53:44;12.70;99.90
17918;DHT22;9084;50.956;3.106;2022-10-16T03:56:10;12.70;99.90
17918;DHT22;9084;50.956;3.106;2022-10-16T03:58:38;12.60;99.90
17918;DHT22;9084;50.956;3.106;2022-10-16T04:01:04;12.70;99.90
17918;DHT22;9084;50.956;3.106;2022-10-16T04:03:32;12.60;99.90
17918;DHT22;9084;50.956;3.106;2022-10-16T04:06:00;12.60;99.90
17918;DHT22;9084;50.956;3.106;2022-10-16T04:08:28;12.60;99.90
17918;DHT22;9084;50.956;3.106;2022-10-16T04:10:54;12.60;99.90
17918;DHT22;9084;50.956;3.106;2022-10-16T04:13:20;12.60;99.90
17918;DHT22;9084;50.956;3.106;2022-10-16T04:15:48;12.60;99.90
17918;DHT22;9084;50.956;3.106;2022-10-16T04:18:14;12.60;99.90
17918;DHT22;9084;50.956;3.106;2022-10-16T04:20:40;12.60;99.90
17918;DHT22;9084;50.956;3.106;2022-10-16T04:23:06;12.60;99.90
17918;DHT22;9084;50.956;3.106;2022-10-16T04:25:34;12.60;99.90
17918;DHT22;9084;50.956;3.106;2022-10-16T04:28:02;12.50;99.90
17918;DHT22;9084;50.956;3.106;2022-10-16T04:30:28;12.50;99.90
17918;DHT22;9084;50.956;3.106;2022-10-16T04:32:59;12.50;99.90
17918;DHT22;9084;50.956;3.106;2022-10-16T04:35:24;12.50;99.90
17918;DHT22;9084;50.956;3.106;2022-10-16T04:37:50;12.60;99.90
17918;DHT22;9084;50.956;3.106;2022-10-16T04:40:18;12.60;99.90
17918;DHT22;9084;50.956;3.106;2022-10-16T04:42:47;12.60;99.90
17918;DHT22;9084;50.956;3.106;2022-10-16T04:45:12;12.70;99.90
17918;DHT22;9084;50.956;3.106;2022-10-16T04:47:41;12.70;99.90
17918;DHT22;9084;50.956;3.106;2022-10-16T04:50:07;12.70;99.90
17918;DHT22;9084;50.956;3.106;2022-10-16T04:52:36;12.80;99.90
17918;DHT22;9084;50.956;3.106;2022-10-16T04:55:01;12.80;99.90
17918;DHT22;9084;50.956;3.106;2022-10-16T04:57:29;12.90;99.90
17918;DHT22;9084;50.956;3.106;2022-10-16T04:59:54;12.90;99.90
17918;DHT22;9084;50.956;3.106;2022-10-16T05:02:20;12.90;99.90
17918;DHT22;9084;50.956;3.106;2022-10-16T05:04:49;13.00;99.90
17918;DHT22;9084;50.956;3.106;2022-10-16T05:07:15;13.00;99.90
17918;DHT22;9084;50.956;3.106;2022-10-16T05:09:41;12.90;99.90
17918;DHT22;9084;50.956;3.106;2022-10-16T05:12:06;12.90;99.90
17918;DHT22;9084;50.956;3.106;2022-10-16T05:14:34;12.80;99.90
17918;DHT22;9084;50.956;3.106;2022-10-16T05:17:03;12.80;99.90
17918;DHT22;9084;50.956;3.106;2022-10-16T05:19:29;12.70;99.90
17918;DHT22;9084;50.956;3.106;2022-10-16T05:21:55;12.70;99.90
17918;DHT22;9084;50.956;3.106;2022-10-16T05:24:21;12.60;99.90
17918;DHT22;9084;50.956;3.106;2022-10-16T05:26:50;12.50;99.90
17918;DHT22;9084;50.956;3.106;2022-10-16T05:29:19;12.50;99.90
17918;DHT22;9084;50.956;3.106;2022-10-16T05:31:51;12.50;99.90
17918;DHT22;9084;50.956;3.106;2022-10-16T05:34:17;12.50;99.90
17918;DHT22;9084;50.956;3.106;2022-10-16T05:36:42;12.50;99.90
17918;DHT22;9084;50.956;3.106;2022-10-16T05:39:11;12.40;99.90
17918;DHT22;9084;50.956;3.106;2022-10-16T05:41:37;12.50;99.90
17918;DHT22;9084;50.956;3.106;2022-10-16T05:44:05;12.50;99.90
17918;DHT22;9084;50.956;3.106;2022-10-16T05:46:34;12.40;99.90
17918;DHT22;9084;50.956;3.106;2022-10-16T05:49:02;12.40;99.90
17918;DHT22;9084;50.956;3.106;2022-10-16T05:51:29;12.40;99.90
17918;DHT22;9084;50.956;3.106;2022-10-16T05:53:57;12.40;99.90
17918;DHT22;9084;50.956;3.106;2022-10-16T05:56:23;12.40;99.90
17918;DHT22;9084;50.956;3.106;2022-10-16T05:58:48;12.40;99.90
17918;DHT22;9084;50.956;3.106;2022-10-16T06:01:19;12.40;99.90
17918;DHT22;9084;50.956;3.106;2022-10-16T06:03:46;12.50;99.90
17918;DHT22;9084;50.956;3.106;2022-10-16T06:08:40;12.40;99.90
17918;DHT22;9084;50.956;3.106;2022-10-16T06:11:10;12.40;99.90
17918;DHT22;9084;50.956;3.106;2022-10-16T06:13:39;12.40;99.90
17918;DHT22;9084;50.956;3.106;2022-10-16T06:16:07;12.40;99.90
17918;DHT22;9084;50.956;3.106;2022-10-16T06:18:36;12.40;99.90
17918;DHT22;9084;50.956;3.106;2022-10-16T06:21:08;12.40;99.90
17918;DHT22;9084;50.956;3.106;2022-10-16T06:23:37;12.40;99.90
17918;DHT22;9084;50.956;3.106;2022-10-16T06:26:11;12.40;99.90
17918;DHT22;9084;50.956;3.106;2022-10-16T06:28:37;12.50;99.90
17918;DHT22;9084;50.956;3.106;2022-10-16T06:31:04;12.50;99.90
17918;DHT22;9084;50.956;3.106;2022-10-16T06:33:33;12.50;99.90
17918;DHT22;9084;50.956;3.106;2022-10-16T06:36:10;12.60;99.90
17918;DHT22;9084;50.956;3.106;2022-10-16T06:38:37;12.60;99.90
17918;DHT22;9084;50.956;3.106;2022-10-16T06:41:07;12.50;99.90
17918;DHT22;9084;50.956;3.106;2022-10-16T06:43:34;12.60;99.90
17918;DHT22;9084;50.956;3.106;2022-10-16T06:46:06;12.60;99.90
17918;DHT22;9084;50.956;3.106;2022-10-16T06:48:36;12.60;99.90
17918;DHT22;9084;50.956;3.106;2022-10-16T06:51:03;12.60;99.90
17918;DHT22;9084;50.956;3.106;2022-10-16T06:53:34;12.60;99.90
17918;DHT22;9084;50.956;3.106;2022-10-16T06:56:13;12.60;99.90
17918;DHT22;9084;50.956;3.106;2022-10-16T06:58:40;12.60;99.90
17918;DHT22;9084;50.956;3.106;2022-10-16T07:01:06;12.60;99.90
17918;DHT22;9084;50.956;3.106;2022-10-16T07:03:36;12.70;99.90
17918;DHT22;9084;50.956;3.106;2022-10-16T07:06:04;12.70;99.90
17918;DHT22;9084;50.956;3.106;2022-10-16T07:08:35;12.60;99.90
17918;DHT22;9084;50.956;3.106;2022-10-16T07:11:06;12.70;99.90
17918;DHT22;9084;50.956;3.106;2022-10-16T07:13:34;12.70;99.90
17918;DHT22;9084;50.956;3.106;2022-10-16T07:16:20;12.70;99.90
17918;DHT22;9084;50.956;3.106;2022-10-16T07:18:46;12.70;99.90
17918;DHT22;9084;50.956;3.106;2022-10-16T07:21:17;12.80;99.90
17918;DHT22;9084;50.956;3.106;2022-10-16T07:23:44;12.80;99.90
17918;DHT22;9084;50.956;3.106;2022-10-16T07:26:11;12.80;99.90
17918;DHT22;9084;50.956;3.106;2022-10-16T07:28:40;12.80;99.90
17918;DHT22;9084;50.956;3.106;2022-10-16T07:31:11;12.90;99.90
17918;DHT22;9084;50.956;3.106;2022-10-16T07:33:39;12.90;99.90
17918;DHT22;9084;50.956;3.106;2022-10-16T07:36:05;13.00;99.90
17918;DHT22;9084;50.956;3.106;2022-10-16T07:38:31;13.00;99.90
17918;DHT22;9084;50.956;3.106;2022-10-16T07:41:01;13.10;99.90
17918;DHT22;9084;50.956;3.106;2022-10-16T07:43:29;13.10;99.90
17918;DHT22;9084;50.956;3.106;2022-10-16T07:45:56;13.20;99.90
17918;DHT22;9084;50.956;3.106;2022-10-16T07:48:23;13.20;99.90
17918;DHT22;9084;50.956;3.106;2022-10-16T07:50:49;13.30;99.90
17918;DHT22;9084;50.956;3.106;2022-10-16T07:53:15;13.30;99.90
17918;DHT22;9084;50.956;3.106;2022-10-16T07:55:41;13.30;99.90
17918;DHT22;9084;50.956;3.106;2022-10-16T07:58:07;13.30;99.90
17918;DHT22;9084;50.956;3.106;2022-10-16T08:00:33;13.40;99.90
17918;DHT22;9084;50.956;3.106;2022-10-16T08:03:00;13.50;99.90
17918;DHT22;9084;50.956;3.106;2022-10-16T08:05:30;13.50;99.90
17918;DHT22;9084;50.956;3.106;2022-10-16T08:07:57;13.60;99.90
17918;DHT22;9084;50.956;3.106;2022-10-16T08:10:25;13.60;99.90
17918;DHT22;9084;50.956;3.106;2022-10-16T08:12:52;13.70;99.90
17918;DHT22;9084;50.956;3.106;2022-10-16T08:15:18;13.70;99.90
17918;DHT22;9084;50.956;3.106;2022-10-16T08:17:54;13.80;99.90
17918;DHT22;9084;50.956;3.106;2022-10-16T08:20:20;13.90;99.90
17918;DHT22;9084;50.956;3.106;2022-10-16T08:22:48;14.00;99.90
17918;DHT22;9084;50.956;3.106;2022-10-16T08:25:14;14.00;99.90
17918;DHT22;9084;50.956;3.106;2022-10-16T08:27:42;14.10;99.90
17918;DHT22;9084;50.956;3.106;2022-10-16T08:30:10;14.20;99.90
17918;DHT22;9084;50.956;3.106;2022-10-16T08:32:43;14.20;99.90
17918;DHT22;9084;50.956;3.106;2022-10-16T08:35:11;14.30;99.90
17918;DHT22;9084;50.956;3.106;2022-10-16T08:37:40;14.30;99.90
17918;DHT22;9084;50.956;3.106;2022-10-16T08:40:12;14.30;99.90
17918;DHT22;9084;50.956;3.106;2022-10-16T08:43:15;14.40;99.90
17918;DHT22;9084;50.956;3.106;2022-10-16T08:48:55;14.50;99.90
17918;DHT22;9084;50.956;3.106;2022-10-16T08:51:31;14.60;99.90
17918;DHT22;9084;50.956;3.106;2022-10-16T08:54:03;14.70;99.90
17918;DHT22;9084;50.956;3.106;2022-10-16T08:56:31;14.80;99.90
17918;DHT22;9084;50.956;3.106;2022-10-16T08:58:59;14.90;99.90
17918;DHT22;9084;50.956;3.106;2022-10-16T09:01:44;15.00;99.90
17918;DHT22;9084;50.956;3.106;2022-10-16T09:07:27;15.00;99.90
17918;DHT22;9084;50.956;3.106;2022-10-16T09:12:43;15.00;99.90
17918;DHT22;9084;50.956;3.106;2022-10-16T09:15:19;15.10;99.90
17918;DHT22;9084;50.956;3.106;2022-10-16T09:17:59;15.20;99.90
17918;DHT22;9084;50.956;3.106;2022-10-16T09:23:30;15.70;99.90
17918;DHT22;9084;50.956;3.106;2022-10-16T09:26:01;15.90;99.90
17918;DHT22;9084;50.956;3.106;2022-10-16T09:28:27;16.10;99.90
17918;DHT22;9084;50.956;3.106;2022-10-16T09:30:52;16.10;99.90
17918;DHT22;9084;50.956;3.106;2022-10-16T09:33:21;16.10;99.90
17918;DHT22;9084;50.956;3.106;2022-10-16T09:35:56;16.10;99.90
17918;DHT22;9084;50.956;3.106;2022-10-16T09:38:33;16.00;99.90
17918;DHT22;9084;50.956;3.106;2022-10-16T09:41:14;16.00;99.90
17918;DHT22;9084;50.956;3.106;2022-10-16T09:43:52;16.00;99.90
17918;DHT22;9084;50.956;3.106;2022-10-16T09:46:33;16.00;99.90
17918;DHT22;9084;50.956;3.106;2022-10-16T09:49:02;16.00;99.90
17918;DHT22;9084;50.956;3.106;2022-10-16T09:51:36;16.00;99.90
17918;DHT22;9084;50.956;3.106;2022-10-16T09:54:17;15.90;99.90
17918;DHT22;9084;50.956;3.106;2022-10-16T09:56:46;15.90;99.90
17918;DHT22;9084;50.956;3.106;2022-10-16T09:59:23;15.90;99.90
17918;DHT22;9084;50.956;3.106;2022-10-16T10:01:51;15.90;99.90
17918;DHT22;9084;50.956;3.106;2022-10-16T10:04:19;15.90;99.90
17918;DHT22;9084;50.956;3.106;2022-10-16T10:06:53;16.00;99.90
17918;DHT22;9084;50.956;3.106;2022-10-16T10:09:39;16.00;99.90
17918;DHT22;9084;50.956;3.106;2022-10-16T10:12:05;16.00;99.90
17918;DHT22;9084;50.956;3.106;2022-10-16T10:14:38;16.10;99.90
17918;DHT22;9084;50.956;3.106;2022-10-16T10:33:21;17.00;99.90
17918;DHT22;9084;50.956;3.106;2022-10-16T10:38:51;17.10;99.90
17918;DHT22;9084;50.956;3.106;2022-10-16T10:47:06;17.20;75.30
17918;DHT22;9084;50.956;3.106;2022-10-16T10:50:10;17.30;81.80
17918;DHT22;9084;50.956;3.106;2022-10-16T10:55:40;17.50;76.70
17918;DHT22;9084;50.956;3.106;2022-10-16T10:58:50;17.60;64.50
17918;DHT22;9084;50.956;3.106;2022-10-16T11:01:46;17.70;53.30
17918;DHT22;9084;50.956;3.106;2022-10-16T11:07:03;17.80;45.50
17918;DHT22;9084;50.956;3.106;2022-10-16T11:09:37;17.90;39.10
17918;DHT22;9084;50.956;3.106;2022-10-16T11:12:14;18.00;33.30
17918;DHT22;9084;50.956;3.106;2022-10-16T11:14:57;18.20;22.10
17918;DHT22;9084;50.956;3.106;2022-10-16T11:17:33;18.20;18.90
17918;DHT22;9084;50.956;3.106;2022-10-16T11:20:24;18.30;17.20
17918;DHT22;9084;50.956;3.106;2022-10-16T11:22:58;18.30;14.00
17918;DHT22;9084;50.956;3.106;2022-10-16T11:25:31;18.30;13.40
17918;DHT22;9084;50.956;3.106;2022-10-16T11:28:58;18.30;16.90
17918;DHT22;9084;50.956;3.106;2022-10-16T11:31:16;18.50;33.90
17918;DHT22;9084;50.956;3.106;2022-10-16T11:33:47;18.70;37.20
17918;DHT22;9084;50.956;3.106;2022-10-16T11:39:00;19.10;10.70
17918;DHT22;9084;50.956;3.106;2022-10-16T11:41:53;19.30;1.00
17918;DHT22;9084;50.956;3.106;2022-10-16T11:47:25;19.50;1.00
17918;DHT22;9084;50.956;3.106;2022-10-16T11:49:59;19.60;1.00
17918;DHT22;9084;50.956;3.106;2022-10-16T11:52:42;19.70;1.00
17918;DHT22;9084;50.956;3.106;2022-10-16T11:55:21;19.70;1.00
17918;DHT22;9084;50.956;3.106;2022-10-16T11:57:57;19.70;1.00
17918;DHT22;9084;50.956;3.106;2022-10-16T12:00:34;19.60;1.00
17918;DHT22;9084;50.956;3.106;2022-10-16T12:06:04;19.50;1.00
17918;DHT22;9084;50.956;3.106;2022-10-16T12:08:36;19.30;1.00
17918;DHT22;9084;50.956;3.106;2022-10-16T12:19:34;19.30;1.00
17918;DHT22;9084;50.956;3.106;2022-10-16T12:22:02;19.30;1.00
17918;DHT22;9084;50.956;3.106;2022-10-16T12:24:41;19.30;1.00
17918;DHT22;9084;50.956;3.106;2022-10-16T12:27:29;19.30;1.00
17918;DHT22;9084;50.956;3.106;2022-10-16T12:30:03;19.20;1.00
17918;DHT22;9084;50.956;3.106;2022-10-16T12:32:36;19.20;1.00
17918;DHT22;9084;50.956;3.106;2022-10-16T12:35:05;19.10;1.00
17918;DHT22;9084;50.956;3.106;2022-10-16T12:37:38;19.10;1.00
17918;DHT22;9084;50.956;3.106;2022-10-16T12:40:34;19.10;1.00
17918;DHT22;9084;50.956;3.106;2022-10-16T12:45:46;19.10;1.00
17918;DHT22;9084;50.956;3.106;2022-10-16T12:48:21;19.00;1.00
17918;DHT22;9084;50.956;3.106;2022-10-16T12:50:50;18.90;1.00
17918;DHT22;9084;50.956;3.106;2022-10-16T12:53:26;18.90;1.00
17918;DHT22;9084;50.956;3.106;2022-10-16T12:56:04;18.90;1.00
17918;DHT22;9084;50.956;3.106;2022-10-16T13:04:21;19.20;1.00
17918;DHT22;9084;50.956;3.106;2022-10-16T13:10:25;19.40;1.00
17918;DHT22;9084;50.956;3.106;2022-10-16T13:18:21;19.50;1.00
17918;DHT22;9084;50.956;3.106;2022-10-16T13:24:08;19.50;1.00
17918;DHT22;9084;50.956;3.106;2022-10-16T13:27:05;19.60;1.00
17918;DHT22;9084;50.956;3.106;2022-10-16T13:29:32;19.50;1.00
17918;DHT22;9084;50.956;3.106;2022-10-16T13:32:01;19.60;1.00
17918;DHT22;9084;50.956;3.106;2022-10-16T13:34:28;19.50;1.00
17918;DHT22;9084;50.956;3.106;2022-10-16T13:36:54;19.50;1.00
17918;DHT22;9084;50.956;3.106;2022-10-16T13:42:05;19.20;1.00
17918;DHT22;9084;50.956;3.106;2022-10-16T13:44:39;19.10;1.00
17918;DHT22;9084;50.956;3.106;2022-10-16T13:47:16;19.00;1.00
17918;DHT22;9084;50.956;3.106;2022-10-16T13:49:43;18.90;1.00
17918;DHT22;9084;50.956;3.106;2022-10-16T13:52:19;18.80;1.00
17918;DHT22;9084;50.956;3.106;2022-10-16T13:54:45;18.80;1.00
17918;DHT22;9084;50.956;3.106;2022-10-16T13:57:14;18.80;1.00
17918;DHT22;9084;50.956;3.106;2022-10-16T13:59:40;18.80;1.00
17918;DHT22;9084;50.956;3.106;2022-10-16T14:02:20;18.80;1.00
17918;DHT22;9084;50.956;3.106;2022-10-16T14:04:47;18.80;1.00
17918;DHT22;9084;50.956;3.106;2022-10-16T14:07:24;18.80;1.00
17918;DHT22;9084;50.956;3.106;2022-10-16T14:09:52;18.90;1.00
17918;DHT22;9084;50.956;3.106;2022-10-16T14:12:18;18.90;1.00
17918;DHT22;9084;50.956;3.106;2022-10-16T14:14:50;19.00;1.00
17918;DHT22;9084;50.956;3.106;2022-10-16T14:17:24;18.90;1.00
17918;DHT22;9084;50.956;3.106;2022-10-16T14:19:56;18.90;1.00
17918;DHT22;9084;50.956;3.106;2022-10-16T14:22:38;18.90;1.00
17918;DHT22;9084;50.956;3.106;2022-10-16T14:30:59;18.80;1.00
17918;DHT22;9084;50.956;3.106;2022-10-16T14:36:14;18.60;1.00
17918;DHT22;9084;50.956;3.106;2022-10-16T14:38:48;18.60;1.00
17918;DHT22;9084;50.956;3.106;2022-10-16T14:41:21;18.50;1.00
17918;DHT22;9084;50.956;3.106;2022-10-16T14:43:56;18.40;1.00
17918;DHT22;9084;50.956;3.106;2022-10-16T14:46:35;18.40;1.00
17918;DHT22;9084;50.956;3.106;2022-10-16T14:51:41;18.20;1.00
17918;DHT22;9084;50.956;3.106;2022-10-16T14:54:12;18.10;1.00
17918;DHT22;9084;50.956;3.106;2022-10-16T14:56:55;18.10;1.00
17918;DHT22;9084;50.956;3.106;2022-10-16T15:04:43;17.90;1.00
17918;DHT22;9084;50.956;3.106;2022-10-16T15:07:11;17.90;1.00
17918;DHT22;9084;50.956;3.106;2022-10-16T15:09:37;17.90;3.40
17918;DHT22;9084;50.956;3.106;2022-10-16T15:12:03;17.90;4.60
17918;DHT22;9084;50.956;3.106;2022-10-16T15:14:29;17.90;7.70
17918;DHT22;9084;50.956;3.106;2022-10-16T15:16:55;17.80;9.50
17918;DHT22;9084;50.956;3.106;2022-10-16T15:19:20;17.80;13.90
17918;DHT22;9084;50.956;3.106;2022-10-16T15:21:48;17.80;13.30
17918;DHT22;9084;50.956;3.106;2022-10-16T15:24:14;17.80;13.20
17918;DHT22;9084;50.956;3.106;2022-10-16T15:26:41;17.80;14.70
17918;DHT22;9084;50.956;3.106;2022-10-16T15:29:07;17.70;18.40
17918;DHT22;9084;50.956;3.106;2022-10-16T15:31:38;17.60;22.40
17918;DHT22;9084;50.956;3.106;2022-10-16T15:34:08;17.50;23.70
17918;DHT22;9084;50.956;3.106;2022-10-16T15:36:36;17.40;35.00
17918;DHT22;9084;50.956;3.106;2022-10-16T15:39:18;17.50;40.10
17918;DHT22;9084;50.956;3.106;2022-10-16T15:41:45;17.30;47.50
17918;DHT22;9084;50.956;3.106;2022-10-16T15:44:21;17.20;54.40
17918;DHT22;9084;50.956;3.106;2022-10-16T15:46:55;17.10;63.40
17918;DHT22;9084;50.956;3.106;2022-10-16T15:49:23;17.00;72.50
17918;DHT22;9084;50.956;3.106;2022-10-16T15:51:52;16.90;84.00
17918;DHT22;9084;50.956;3.106;2022-10-16T15:54:20;16.90;92.20
17918;DHT22;9084;50.956;3.106;2022-10-16T15:56:48;16.80;95.70
17918;DHT22;9084;50.956;3.106;2022-10-16T15:59:14;16.80;99.70
17918;DHT22;9084;50.956;3.106;2022-10-16T16:01:40;16.80;99.40
17918;DHT22;9084;50.956;3.106;2022-10-16T16:04:06;16.80;99.90
17918;DHT22;9084;50.956;3.106;2022-10-16T16:06:32;16.70;99.90
17918;DHT22;9084;50.956;3.106;2022-10-16T16:08:58;16.60;99.90
17918;DHT22;9084;50.956;3.106;2022-10-16T16:11:25;16.60;99.90
17918;DHT22;9084;50.956;3.106;2022-10-16T16:13:51;16.60;99.90
17918;DHT22;9084;50.956;3.106;2022-10-16T16:16:17;16.50;99.90
17918;DHT22;9084;50.956;3.106;2022-10-16T16:18:47;16.50;99.90
17918;DHT22;9084;50.956;3.106;2022-10-16T16:21:15;16.50;99.90
17918;DHT22;9084;50.956;3.106;2022-10-16T16:23:43;16.40;99.90
17918;DHT22;9084;50.956;3.106;2022-10-16T16:26:30;16.40;99.90
17918;DHT22;9084;50.956;3.106;2022-10-16T16:29:00;16.40;99.90
17918;DHT22;9084;50.956;3.106;2022-10-16T16:31:27;16.30;99.90
17918;DHT22;9084;50.956;3.106;2022-10-16T16:33:57;16.30;99.90
17918;DHT22;9084;50.956;3.106;2022-10-16T16:36:24;16.20;99.90
17918;DHT22;9084;50.956;3.106;2022-10-16T16:38:51;16.20;99.90
17918;DHT22;9084;50.956;3.106;2022-10-16T16:41:22;16.20;99.90
17918;DHT22;9084;50.956;3.106;2022-10-16T16:43:48;16.30;99.90
17918;DHT22;9084;50.956;3.106;2022-10-16T16:46:14;16.10;99.90
17918;DHT22;9084;50.956;3.106;2022-10-16T16:48:41;16.10;99.90
17918;DHT22;9084;50.956;3.106;2022-10-16T16:51:13;16.10;99.90
17918;DHT22;9084;50.956;3.106;2022-10-16T16:53:44;16.10;99.90
17918;DHT22;9084;50.956;3.106;2022-10-16T16:56:10;16.10;99.90
17918;DHT22;9084;50.956;3.106;2022-10-16T16:58:36;16.00;99.90
17918;DHT22;9084;50.956;3.106;2022-10-16T17:01:02;16.00;99.90
17918;DHT22;9084;50.956;3.106;2022-10-16T17:03:29;16.00;99.90
17918;DHT22;9084;50.956;3.106;2022-10-16T17:06:06;16.00;99.90
17918;DHT22;9084;50.956;3.106;2022-10-16T17:08:36;16.00;99.90
17918;DHT22;9084;50.956;3.106;2022-10-16T17:11:15;16.00;99.90
17918;DHT22;9084;50.956;3.106;2022-10-16T17:13:44;16.00;99.90
17918;DHT22;9084;50.956;3.106;2022-10-16T17:16:12;16.00;99.90
17918;DHT22;9084;50.956;3.106;2022-10-16T17:18:38;16.00;99.90
17918;DHT22;9084;50.956;3.106;2022-10-16T17:21:08;16.00;99.90
17918;DHT22;9084;50.956;3.106;2022-10-16T17:23:41;15.90;99.90
17918;DHT22;9084;50.956;3.106;2022-10-16T17:26:10;16.00;99.90
17918;DHT22;9084;50.956;3.106;2022-10-16T17:28:36;16.00;99.90
17918;DHT22;9084;50.956;3.106;2022-10-16T17:31:18;15.90;99.90
17918;DHT22;9084;50.956;3.106;2022-10-16T17:33:46;15.90;99.90
17918;DHT22;9084;50.956;3.106;2022-10-16T17:36:13;15.90;99.90
17918;DHT22;9084;50.956;3.106;2022-10-16T17:38:41;15.90;99.90
17918;DHT22;9084;50.956;3.106;2022-10-16T17:41:27;15.90;99.90
17918;DHT22;9084;50.956;3.106;2022-10-16T17:43:53;15.90;99.90
17918;DHT22;9084;50.956;3.106;2022-10-16T17:46:21;15.90;99.90
17918;DHT22;9084;50.956;3.106;2022-10-16T17:48:49;15.80;99.90
17918;DHT22;9084;50.956;3.106;2022-10-16T17:51:21;15.80;99.90
17918;DHT22;9084;50.956;3.106;2022-10-16T17:53:54;15.80;99.90
17918;DHT22;9084;50.956;3.106;2022-10-16T17:56:21;15.80;99.90
17918;DHT22;9084;50.956;3.106;2022-10-16T17:58:49;15.80;99.90
17918;DHT22;9084;50.956;3.106;2022-10-16T18:01:25;15.80;99.90
17918;DHT22;9084;50.956;3.106;2022-10-16T18:04:00;15.80;99.90
17918;DHT22;9084;50.956;3.106;2022-10-16T18:06:29;15.80;99.90
17918;DHT22;9084;50.956;3.106;2022-10-16T18:08:56;15.80;99.90
17918;DHT22;9084;50.956;3.106;2022-10-16T18:11:22;15.80;99.90